Navin Kestrel — V7ZR5 — position and weather

sailwx.info

Track history (hours):
 
Tides and Currents Weather Stations Pressure Air Temp Water Temp Dewpoint Dewpoint Depression Visibility Wind Speed Wind Dir Waves Ship Positions

Navin Kestrel

Last reported at 2018-Jun-19 02:43 UTC. Time now 2018-Jun-19 06:47 UTC.
Position N 37°52' E 015°43'.

Length 116 m; draft 6.6 m.

Type: Cargo ship. MMSI: 538004897.

Date/timePositionNaut miles runAvg speedWind from/ knotsBaromVisibWave heightAir tempDewpointWater temp
2018-Jun-19 02:43N 37°52' E 015°43'2 8.0
2018-Jun-19 02:29N 37°53' E 015°41'4 7.8
2018-Jun-19 01:57N 37°55' E 015°37'4 8.9
2018-Jun-19 01:30N 37°59' E 015°36'4 8.8
2018-Jun-19 01:00N 38°04' E 015°36'5 9.2
2018-Jun-19 00:31N 38°08' E 015°35'5 9.1
2018-Jun-19 00:00N 38°13' E 015°36'5 9.9
2018-Jun-18 23:28N 38°16' E 015°40'4 9.1
2018-Jun-18 23:01N 38°20' E 015°38'5 9.1
2018-Jun-18 22:30N 38°24' E 015°35'4 8.9
2018-Jun-18 22:00N 38°27' E 015°32'5 9.2
2018-Jun-18 21:30N 38°30' E 015°27'4 8.8
2018-Jun-18 21:01N 38°33' E 015°23'4 8.4
2018-Jun-18 20:29N 38°36' E 015°19'5 8.5
2018-Jun-18 19:57N 38°39' E 015°14'235 9.0
2018-Jun-17 17:41N 40°53' E 011°03'50 6.1
2018-Jun-17 09:29N 41°21' E 010°07'0 0.7
2018-Jun-17 08:56N 41°21' E 010°07'0 0.7
2018-Jun-17 08:22N 41°21' E 010°06'0 0.7
2018-Jun-17 07:59N 41°21' E 010°06'9 4.1
2018-Jun-17 05:53N 41°22' E 009°54'  
2018-Jun-14 03:28N 42°60' E 007°07'13 9.3
2018-Jun-14 02:01N 43°03' E 007°25'0 8.9
2018-Jun-14 01:59N 43°03' E 007°25'4 8.9
2018-Jun-14 01:30N 43°04' E 007°31'4 8.9
2018-Jun-14 01:00N 43°04' E 007°37'5 9.2
2018-Jun-14 00:30N 43°05' E 007°43'5 9.2
2018-Jun-14 00:00N 43°05' E 007°50'5 9.2
2018-Jun-13 23:30N 43°05' E 007°56'5 8.8
2018-Jun-13 22:58N 43°06' E 008°02'4 8.9
2018-Jun-13 22:29N 43°06' E 008°08'29 9.3
2018-Jun-13 19:23N 43°11' E 008°47'3 9.4
2018-Jun-13 19:00N 43°11' E 008°52'5 9.3
2018-Jun-13 18:30N 43°12' E 008°58'5 9.1
2018-Jun-13 18:00N 43°13' E 009°04'5 9.4
2018-Jun-13 17:31N 43°14' E 009°11'5 9.3
2018-Jun-13 17:00N 43°14' E 009°17'5 9.7
2018-Jun-13 16:30N 43°15' E 009°24'5 9.7
2018-Jun-13 16:00N 43°15' E 009°30'5 9.6
2018-Jun-13 15:30N 43°16' E 009°37'5 9.7
2018-Jun-13 15:00N 43°17' E 009°43'5 9.6
2018-Jun-13 14:30N 43°18' E 009°50'5 9.7
2018-Jun-13 14:00N 43°18' E 009°56'4 9.0
2018-Jun-13 13:30N 43°22' E 010°01'510.2
2018-Jun-13 13:00N 43°27' E 010°03'4 8.4
2018-Jun-13 12:30N 43°30' E 010°06'5 9.5
2018-Jun-13 12:00N 43°31' E 010°13'4 7.7
2018-Jun-13 11:30N 43°33' E 010°17'1 1.2
2018-Jun-13 10:58N 43°33' E 010°18'0 0.0
2018-Jun-13 10:25N 43°33' E 010°18'0 0.0
2018-Jun-13 09:58N 43°33' E 010°18'0 0.0
2018-Jun-13 09:25N 43°33' E 010°18'0 0.0
2018-Jun-13 08:58N 43°33' E 010°18'0 0.0
2018-Jun-13 08:28N 43°33' E 010°18'0 0.0
2018-Jun-13 07:58N 43°33' E 010°18'0 0.0
2018-Jun-13 07:28N 43°33' E 010°18'0 0.0
2018-Jun-13 06:58N 43°33' E 010°18'0 0.0
2018-Jun-13 06:28N 43°33' E 010°18'0 0.0
2018-Jun-13 05:58N 43°33' E 010°18'0 0.0
2018-Jun-13 05:25N 43°33' E 010°18'0 0.0
2018-Jun-13 04:58N 43°33' E 010°18'0 0.0
2018-Jun-13 04:28N 43°33' E 010°18'0 0.0
2018-Jun-13 03:58N 43°33' E 010°18'0 0.0
2018-Jun-13 03:28N 43°33' E 010°18'0 0.0
2018-Jun-13 02:58N 43°33' E 010°18'0 0.0
2018-Jun-13 02:28N 43°33' E 010°18'0 0.0
2018-Jun-13 01:58N 43°33' E 010°18'0 0.0
2018-Jun-13 01:28N 43°33' E 010°18'0 0.0
2018-Jun-13 00:58N 43°33' E 010°18'0 0.0
2018-Jun-13 00:28N 43°33' E 010°18'0 0.0
2018-Jun-12 23:58N 43°33' E 010°18'0 0.0
2018-Jun-12 23:28N 43°33' E 010°18'0 0.0
2018-Jun-12 22:58N 43°33' E 010°18'0 0.0
2018-Jun-12 22:28N 43°33' E 010°18'0 0.0
2018-Jun-12 21:58N 43°33' E 010°18'0 0.0
2018-Jun-12 21:28N 43°33' E 010°18'0 0.0
2018-Jun-12 20:58N 43°33' E 010°18'0 0.0
2018-Jun-12 20:28N 43°33' E 010°18'0 0.0
2018-Jun-12 19:58N 43°33' E 010°18'0 0.0
2018-Jun-12 19:28N 43°33' E 010°18'0 0.0
2018-Jun-12 18:58N 43°33' E 010°18'0 0.0
2018-Jun-12 18:28N 43°33' E 010°18'0 0.0
2018-Jun-12 17:58N 43°33' E 010°18'0 0.0
2018-Jun-12 17:25N 43°33' E 010°18'0 0.0
2018-Jun-12 16:58N 43°33' E 010°18'0 0.0
2018-Jun-12 16:28N 43°33' E 010°18'0 0.0
2018-Jun-12 15:58N 43°33' E 010°18'0 0.0
2018-Jun-12 15:28N 43°33' E 010°18'0 0.0
2018-Jun-12 14:55N 43°33' E 010°18'0 0.0
2018-Jun-12 14:25N 43°33' E 010°18'0 0.0
2018-Jun-12 13:52N 43°33' E 010°18'0 0.0
2018-Jun-12 13:28N 43°33' E 010°18'0 0.0
2018-Jun-12 12:58N 43°33' E 010°18'0 0.0
2018-Jun-12 12:28N 43°33' E 010°18'0 0.0
2018-Jun-12 11:58N 43°33' E 010°18'0 0.0
2018-Jun-12 11:28N 43°33' E 010°18'0 0.0
2018-Jun-12 10:58N 43°33' E 010°18'0 0.0
2018-Jun-12 10:28N 43°33' E 010°18'0 0.0
2018-Jun-12 09:58N 43°33' E 010°18'0 0.0
2018-Jun-12 09:28N 43°33' E 010°18'0 0.0
2018-Jun-12 08:58N 43°33' E 010°18'0 0.0
2018-Jun-12 08:28N 43°33' E 010°18'0 0.0
2018-Jun-12 07:55N 43°33' E 010°18'0 0.0
2018-Jun-12 07:25N 43°33' E 010°18'0 0.0
2018-Jun-12 06:58N 43°33' E 010°18'0 0.0
2018-Jun-12 06:28N 43°33' E 010°18'0 0.0
2018-Jun-12 05:58N 43°33' E 010°18'0 0.0
2018-Jun-12 05:28N 43°33' E 010°18'0 0.0
2018-Jun-12 04:58N 43°33' E 010°18'0 0.0
2018-Jun-12 04:28N 43°33' E 010°18'0 0.0
2018-Jun-12 03:58N 43°33' E 010°18'0 0.0
2018-Jun-12 03:28N 43°33' E 010°18'0 0.0
2018-Jun-12 02:58N 43°33' E 010°18'0 0.0
2018-Jun-12 02:25N 43°33' E 010°18'0 0.0
2018-Jun-12 01:58N 43°33' E 010°18'0 0.0
2018-Jun-12 01:28N 43°33' E 010°18'0 0.0
2018-Jun-12 00:58N 43°33' E 010°18'0 0.0
2018-Jun-12 00:28N 43°33' E 010°18'0 0.0
2018-Jun-11 23:58N 43°33' E 010°18'0 0.0
2018-Jun-11 23:28N 43°33' E 010°18'0 0.0
2018-Jun-11 22:58N 43°33' E 010°18'0 0.0
2018-Jun-11 22:28N 43°33' E 010°18'0 0.0
2018-Jun-11 21:55N 43°33' E 010°18'0 0.0
2018-Jun-11 21:28N 43°33' E 010°18'0 0.0
2018-Jun-11 20:58N 43°33' E 010°18'0 0.0
2018-Jun-11 20:28N 43°33' E 010°18'0 0.0
2018-Jun-11 19:58N 43°33' E 010°18'0 0.0
2018-Jun-11 19:28N 43°33' E 010°18'0 0.0
2018-Jun-11 18:58N 43°33' E 010°18'0 0.0
2018-Jun-11 18:28N 43°33' E 010°18'0 0.0
2018-Jun-11 17:49N 43°33' E 010°18'0 0.0
2018-Jun-11 17:28N 43°33' E 010°18'0 0.0
2018-Jun-11 16:58N 43°33' E 010°18'0 0.0
2018-Jun-11 16:28N 43°33' E 010°18'0 0.0
2018-Jun-11 15:58N 43°33' E 010°18'0 0.0
2018-Jun-11 15:28N 43°33' E 010°18'0 0.0
2018-Jun-11 14:58N 43°33' E 010°18'0 0.0
2018-Jun-11 14:28N 43°33' E 010°18'0 0.0
2018-Jun-11 13:58N 43°33' E 010°18'0 0.0
2018-Jun-11 13:28N 43°33' E 010°18'0 0.0
2018-Jun-11 12:55N 43°33' E 010°18'0 0.0
2018-Jun-11 12:28N 43°33' E 010°18'0 0.0
2018-Jun-11 11:58N 43°33' E 010°18'0 0.0
2018-Jun-11 11:28N 43°33' E 010°18'0 0.0
2018-Jun-11 10:58N 43°33' E 010°18'0 0.0
2018-Jun-11 10:28N 43°33' E 010°18'0 0.0
2018-Jun-11 09:58N 43°33' E 010°18'0 0.0
2018-Jun-11 09:28N 43°33' E 010°18'0 0.0
2018-Jun-11 08:58N 43°33' E 010°18'0 0.0
2018-Jun-11 08:25N 43°33' E 010°18'0 0.0
2018-Jun-11 07:58N 43°33' E 010°18'0 0.0
2018-Jun-11 07:28N 43°33' E 010°18'0 0.0
2018-Jun-11 06:58N 43°33' E 010°18'0 0.0
2018-Jun-11 06:28N 43°33' E 010°18'0 0.0
2018-Jun-11 05:58N 43°33' E 010°18'0 0.0
2018-Jun-11 05:28N 43°33' E 010°18'0 0.0
2018-Jun-11 04:58N 43°33' E 010°18'0 0.0
2018-Jun-11 04:25N 43°33' E 010°18'0 0.0
2018-Jun-11 03:58N 43°33' E 010°18'0 0.0
2018-Jun-11 03:28N 43°33' E 010°18'0 0.0
2018-Jun-11 02:55N 43°33' E 010°18'0 0.0
2018-Jun-11 02:28N 43°33' E 010°18'0 0.0
2018-Jun-11 01:58N 43°33' E 010°18'0 0.0
2018-Jun-11 01:28N 43°33' E 010°18'0 0.0
2018-Jun-11 00:58N 43°33' E 010°18'0 0.0
2018-Jun-11 00:28N 43°33' E 010°18'0 0.0
2018-Jun-10 23:58N 43°33' E 010°18'0 0.0
2018-Jun-10 23:28N 43°33' E 010°18'0 0.0
2018-Jun-10 22:58N 43°33' E 010°18'0 0.0
2018-Jun-10 22:28N 43°33' E 010°18'0 0.0
2018-Jun-10 21:58N 43°33' E 010°18'0 0.0
2018-Jun-10 21:28N 43°33' E 010°18'0 0.0
2018-Jun-10 20:58N 43°33' E 010°18'0 0.0
2018-Jun-10 20:28N 43°33' E 010°18'0 0.0
2018-Jun-10 19:58N 43°33' E 010°18'0 0.0
2018-Jun-10 19:25N 43°33' E 010°18'0 0.0
2018-Jun-10 18:58N 43°33' E 010°18'0 0.0
2018-Jun-10 18:28N 43°33' E 010°18'0 0.0
2018-Jun-10 17:58N 43°33' E 010°18'0 0.0
2018-Jun-10 17:28N 43°33' E 010°18'0 0.0
2018-Jun-10 16:58N 43°33' E 010°18'0 0.0
2018-Jun-10 16:28N 43°33' E 010°18'0 0.0
2018-Jun-10 15:58N 43°33' E 010°18'0 0.0
2018-Jun-10 15:28N 43°33' E 010°18'0 0.0
2018-Jun-10 14:58N 43°33' E 010°18'0 0.0
2018-Jun-10 14:28N 43°33' E 010°18'0 0.0
2018-Jun-10 13:28N 43°33' E 010°18'0 0.0
2018-Jun-10 12:58N 43°33' E 010°18'0 0.0
2018-Jun-10 12:28N 43°33' E 010°18'0 0.0
2018-Jun-10 11:58N 43°33' E 010°18'0 0.0
2018-Jun-10 11:28N 43°33' E 010°18'0 0.0
2018-Jun-10 10:58N 43°33' E 010°18'0 0.0
2018-Jun-10 10:28N 43°33' E 010°18'0 0.0
2018-Jun-10 09:58N 43°33' E 010°18'0 0.0
2018-Jun-10 09:28N 43°33' E 010°18'0 0.0
2018-Jun-10 08:58N 43°33' E 010°18'0 0.0
2018-Jun-10 08:28N 43°33' E 010°18'0 0.0
2018-Jun-10 07:58N 43°33' E 010°18'0 0.0
2018-Jun-10 07:28N 43°33' E 010°18'0 0.0
2018-Jun-10 06:58N 43°33' E 010°18'0 0.0
2018-Jun-10 06:28N 43°33' E 010°18'0 0.0
2018-Jun-10 05:58N 43°33' E 010°18'0 0.0
2018-Jun-10 05:28N 43°33' E 010°18'0 0.0
2018-Jun-10 04:58N 43°33' E 010°18'0 0.0
2018-Jun-10 04:25N 43°33' E 010°18'0 0.0
2018-Jun-10 03:58N 43°33' E 010°18'0 0.0
2018-Jun-10 03:28N 43°33' E 010°18'0 0.0
2018-Jun-10 02:58N 43°33' E 010°18'0 0.0
2018-Jun-10 02:28N 43°33' E 010°18'0 0.0
2018-Jun-10 01:58N 43°33' E 010°18'0 0.0
2018-Jun-10 01:25N 43°33' E 010°18'0 0.0
2018-Jun-10 00:58N 43°33' E 010°18'0 0.0
2018-Jun-10 00:28N 43°33' E 010°18'0 0.0
2018-Jun-09 23:58N 43°33' E 010°18'0 0.0
2018-Jun-09 23:28N 43°33' E 010°18'0 0.0
2018-Jun-09 22:58N 43°33' E 010°18'0 0.0
2018-Jun-09 22:28N 43°33' E 010°18'0 0.0
2018-Jun-09 21:58N 43°33' E 010°18'0 0.0
2018-Jun-09 21:28N 43°33' E 010°18'0 0.0
2018-Jun-09 20:58N 43°33' E 010°18'0 0.0
2018-Jun-09 20:28N 43°33' E 010°18'0 0.0
2018-Jun-09 19:58N 43°33' E 010°18'0 0.0
2018-Jun-09 19:28N 43°33' E 010°18'0 0.0
2018-Jun-09 18:58N 43°33' E 010°18'0 0.0
2018-Jun-09 18:28N 43°33' E 010°18'0 0.0
2018-Jun-09 17:58N 43°33' E 010°18'0 0.0
2018-Jun-09 17:28N 43°33' E 010°18'0 0.0
2018-Jun-09 16:58N 43°33' E 010°18'0 0.0
2018-Jun-09 16:28N 43°33' E 010°18'0 0.0
2018-Jun-09 15:58N 43°33' E 010°18'0 0.0
2018-Jun-09 15:01N 43°33' E 010°18'1 2.4
2018-Jun-09 14:31N 43°32' E 010°17'1 2.8
2018-Jun-09 14:00N 43°31' E 010°17'0 0.1
2018-Jun-09 13:31N 43°31' E 010°17'0 0.1
2018-Jun-09 12:58N 43°31' E 010°17'0 0.0
2018-Jun-09 12:28N 43°31' E 010°17'0 0.0
2018-Jun-09 11:58N 43°31' E 010°17'0 0.0
2018-Jun-09 11:28N 43°31' E 010°17'0 0.0
2018-Jun-09 10:58N 43°31' E 010°17'0 0.0
2018-Jun-09 10:28N 43°31' E 010°17'0 0.0
2018-Jun-09 09:55N 43°31' E 010°17'0 0.0
2018-Jun-09 09:28N 43°31' E 010°17'0 0.0
2018-Jun-09 08:58N 43°31' E 010°17'0 0.0
2018-Jun-09 08:28N 43°31' E 010°17'0 0.0
2018-Jun-09 07:58N 43°31' E 010°17'0 0.0
2018-Jun-09 07:28N 43°31' E 010°17'0 0.0
2018-Jun-09 06:58N 43°31' E 010°17'0 0.0
2018-Jun-09 06:28N 43°31' E 010°17'0 0.0
2018-Jun-09 05:58N 43°31' E 010°17'0 0.0
2018-Jun-09 05:28N 43°31' E 010°17'0 0.0
2018-Jun-09 04:58N 43°31' E 010°17'0 0.0
2018-Jun-09 04:25N 43°31' E 010°17'0 0.0
2018-Jun-09 03:58N 43°31' E 010°17'0 0.0
2018-Jun-09 03:28N 43°31' E 010°17'0 0.0
2018-Jun-09 02:58N 43°31' E 010°17'  
Track history (hours):
 
Tides and Currents Weather Stations Pressure Air Temp Water Temp Dewpoint Dewpoint Depression Visibility Wind Speed Wind Dir Waves Ship Positions

Navin Kestrel

Last reported at 2018-Jun-19 02:43 UTC. Time now 2018-Jun-19 06:47 UTC.
Position N 37°52' E 015°43'.

Length 116 m; draft 6.6 m.

Type: Cargo ship. MMSI: 538004897.

Date/timePositionNaut miles runAvg speedWind from/ knotsBaromVisibWave heightAir tempDewpointWater temp
2018-Jun-19 02:43N 37°52' E 015°43'2 8.0
2018-Jun-19 02:29N 37°53' E 015°41'4 7.8
2018-Jun-19 01:57N 37°55' E 015°37'4 8.9
2018-Jun-19 01:30N 37°59' E 015°36'4 8.8
2018-Jun-19 01:00N 38°04' E 015°36'5 9.2
2018-Jun-19 00:31N 38°08' E 015°35'5 9.1
2018-Jun-19 00:00N 38°13' E 015°36'5 9.9
2018-Jun-18 23:28N 38°16' E 015°40'4 9.1
2018-Jun-18 23:01N 38°20' E 015°38'5 9.1
2018-Jun-18 22:30N 38°24' E 015°35'4 8.9
2018-Jun-18 22:00N 38°27' E 015°32'5 9.2
2018-Jun-18 21:30N 38°30' E 015°27'4 8.8
2018-Jun-18 21:01N 38°33' E 015°23'4 8.4
2018-Jun-18 20:29N 38°36' E 015°19'5 8.5
2018-Jun-18 19:57N 38°39' E 015°14'235 9.0
2018-Jun-17 17:41N 40°53' E 011°03'50 6.1
2018-Jun-17 09:29N 41°21' E 010°07'0 0.7
2018-Jun-17 08:56N 41°21' E 010°07'0 0.7
2018-Jun-17 08:22N 41°21' E 010°06'0 0.7
2018-Jun-17 07:59N 41°21' E 010°06'9 4.1
2018-Jun-17 05:53N 41°22' E 009°54'  
2018-Jun-14 03:28N 42°60' E 007°07'13 9.3
2018-Jun-14 02:01N 43°03' E 007°25'0 8.9
2018-Jun-14 01:59N 43°03' E 007°25'4 8.9
2018-Jun-14 01:30N 43°04' E 007°31'4 8.9
2018-Jun-14 01:00N 43°04' E 007°37'5 9.2
2018-Jun-14 00:30N 43°05' E 007°43'5 9.2
2018-Jun-14 00:00N 43°05' E 007°50'5 9.2
2018-Jun-13 23:30N 43°05' E 007°56'5 8.8
2018-Jun-13 22:58N 43°06' E 008°02'4 8.9
2018-Jun-13 22:29N 43°06' E 008°08'29 9.3
2018-Jun-13 19:23N 43°11' E 008°47'3 9.4
2018-Jun-13 19:00N 43°11' E 008°52'5 9.3
2018-Jun-13 18:30N 43°12' E 008°58'5 9.1
2018-Jun-13 18:00N 43°13' E 009°04'5 9.4
2018-Jun-13 17:31N 43°14' E 009°11'5 9.3
2018-Jun-13 17:00N 43°14' E 009°17'5 9.7
2018-Jun-13 16:30N 43°15' E 009°24'5 9.7
2018-Jun-13 16:00N 43°15' E 009°30'5 9.6
2018-Jun-13 15:30N 43°16' E 009°37'5 9.7
2018-Jun-13 15:00N 43°17' E 009°43'5 9.6
2018-Jun-13 14:30N 43°18' E 009°50'5 9.7
2018-Jun-13 14:00N 43°18' E 009°56'4 9.0
2018-Jun-13 13:30N 43°22' E 010°01'510.2
2018-Jun-13 13:00N 43°27' E 010°03'4 8.4
2018-Jun-13 12:30N 43°30' E 010°06'5 9.5
2018-Jun-13 12:00N 43°31' E 010°13'4 7.7
2018-Jun-13 11:30N 43°33' E 010°17'1 1.2
2018-Jun-13 10:58N 43°33' E 010°18'0 0.0
2018-Jun-13 10:25N 43°33' E 010°18'0 0.0
2018-Jun-13 09:58N 43°33' E 010°18'0 0.0
2018-Jun-13 09:25N 43°33' E 010°18'0 0.0
2018-Jun-13 08:58N 43°33' E 010°18'0 0.0
2018-Jun-13 08:28N 43°33' E 010°18'0 0.0
2018-Jun-13 07:58N 43°33' E 010°18'0 0.0
2018-Jun-13 07:28N 43°33' E 010°18'0 0.0
2018-Jun-13 06:58N 43°33' E 010°18'0 0.0
2018-Jun-13 06:28N 43°33' E 010°18'0 0.0
2018-Jun-13 05:58N 43°33' E 010°18'0 0.0
2018-Jun-13 05:25N 43°33' E 010°18'0 0.0
2018-Jun-13 04:58N 43°33' E 010°18'0 0.0
2018-Jun-13 04:28N 43°33' E 010°18'0 0.0
2018-Jun-13 03:58N 43°33' E 010°18'0 0.0
2018-Jun-13 03:28N 43°33' E 010°18'0 0.0
2018-Jun-13 02:58N 43°33' E 010°18'0 0.0
2018-Jun-13 02:28N 43°33' E 010°18'0 0.0
2018-Jun-13 01:58N 43°33' E 010°18'0 0.0
2018-Jun-13 01:28N 43°33' E 010°18'0 0.0
2018-Jun-13 00:58N 43°33' E 010°18'0 0.0
2018-Jun-13 00:28N 43°33' E 010°18'0 0.0
2018-Jun-12 23:58N 43°33' E 010°18'0 0.0
2018-Jun-12 23:28N 43°33' E 010°18'0 0.0
2018-Jun-12 22:58N 43°33' E 010°18'0 0.0
2018-Jun-12 22:28N 43°33' E 010°18'0 0.0
2018-Jun-12 21:58N 43°33' E 010°18'0 0.0
2018-Jun-12 21:28N 43°33' E 010°18'0 0.0
2018-Jun-12 20:58N 43°33' E 010°18'0 0.0
2018-Jun-12 20:28N 43°33' E 010°18'0 0.0
2018-Jun-12 19:58N 43°33' E 010°18'0 0.0
2018-Jun-12 19:28N 43°33' E 010°18'0 0.0
2018-Jun-12 18:58N 43°33' E 010°18'0 0.0
2018-Jun-12 18:28N 43°33' E 010°18'0 0.0
2018-Jun-12 17:58N 43°33' E 010°18'0 0.0
2018-Jun-12 17:25N 43°33' E 010°18'0 0.0
2018-Jun-12 16:58N 43°33' E 010°18'0 0.0
2018-Jun-12 16:28N 43°33' E 010°18'0 0.0
2018-Jun-12 15:58N 43°33' E 010°18'0 0.0
2018-Jun-12 15:28N 43°33' E 010°18'0 0.0
2018-Jun-12 14:55N 43°33' E 010°18'0 0.0
2018-Jun-12 14:25N 43°33' E 010°18'0 0.0
2018-Jun-12 13:52N 43°33' E 010°18'0 0.0
2018-Jun-12 13:28N 43°33' E 010°18'0 0.0
2018-Jun-12 12:58N 43°33' E 010°18'0 0.0
2018-Jun-12 12:28N 43°33' E 010°18'0 0.0
2018-Jun-12 11:58N 43°33' E 010°18'0 0.0
2018-Jun-12 11:28N 43°33' E 010°18'0 0.0
2018-Jun-12 10:58N 43°33' E 010°18'0 0.0
2018-Jun-12 10:28N 43°33' E 010°18'0 0.0
2018-Jun-12 09:58N 43°33' E 010°18'0 0.0
2018-Jun-12 09:28N 43°33' E 010°18'0 0.0
2018-Jun-12 08:58N 43°33' E 010°18'0 0.0
2018-Jun-12 08:28N 43°33' E 010°18'0 0.0
2018-Jun-12 07:55N 43°33' E 010°18'0 0.0
2018-Jun-12 07:25N 43°33' E 010°18'0 0.0
2018-Jun-12 06:58N 43°33' E 010°18'0 0.0
2018-Jun-12 06:28N 43°33' E 010°18'0 0.0
2018-Jun-12 05:58N 43°33' E 010°18'0 0.0
2018-Jun-12 05:28N 43°33' E 010°18'0 0.0
2018-Jun-12 04:58N 43°33' E 010°18'0 0.0
2018-Jun-12 04:28N 43°33' E 010°18'0 0.0
2018-Jun-12 03:58N 43°33' E 010°18'0 0.0
2018-Jun-12 03:28N 43°33' E 010°18'0 0.0
2018-Jun-12 02:58N 43°33' E 010°18'0 0.0
2018-Jun-12 02:25N 43°33' E 010°18'0 0.0
2018-Jun-12 01:58N 43°33' E 010°18'0 0.0
2018-Jun-12 01:28N 43°33' E 010°18'0 0.0
2018-Jun-12 00:58N 43°33' E 010°18'0 0.0
2018-Jun-12 00:28N 43°33' E 010°18'0 0.0
2018-Jun-11 23:58N 43°33' E 010°18'0 0.0
2018-Jun-11 23:28N 43°33' E 010°18'0 0.0
2018-Jun-11 22:58N 43°33' E 010°18'0 0.0
2018-Jun-11 22:28N 43°33' E 010°18'0 0.0
2018-Jun-11 21:55N 43°33' E 010°18'0 0.0
2018-Jun-11 21:28N 43°33' E 010°18'0 0.0
2018-Jun-11 20:58N 43°33' E 010°18'0 0.0
2018-Jun-11 20:28N 43°33' E 010°18'0 0.0
2018-Jun-11 19:58N 43°33' E 010°18'0 0.0
2018-Jun-11 19:28N 43°33' E 010°18'0 0.0
2018-Jun-11 18:58N 43°33' E 010°18'0 0.0
2018-Jun-11 18:28N 43°33' E 010°18'0 0.0
2018-Jun-11 17:49N 43°33' E 010°18'0 0.0
2018-Jun-11 17:28N 43°33' E 010°18'0 0.0
2018-Jun-11 16:58N 43°33' E 010°18'0 0.0
2018-Jun-11 16:28N 43°33' E 010°18'0 0.0
2018-Jun-11 15:58N 43°33' E 010°18'0 0.0
2018-Jun-11 15:28N 43°33' E 010°18'0 0.0
2018-Jun-11 14:58N 43°33' E 010°18'0 0.0
2018-Jun-11 14:28N 43°33' E 010°18'0 0.0
2018-Jun-11 13:58N 43°33' E 010°18'0 0.0
2018-Jun-11 13:28N 43°33' E 010°18'0 0.0
2018-Jun-11 12:55N 43°33' E 010°18'0 0.0
2018-Jun-11 12:28N 43°33' E 010°18'0 0.0
2018-Jun-11 11:58N 43°33' E 010°18'0 0.0
2018-Jun-11 11:28N 43°33' E 010°18'0 0.0
2018-Jun-11 10:58N 43°33' E 010°18'0 0.0
2018-Jun-11 10:28N 43°33' E 010°18'0 0.0
2018-Jun-11 09:58N 43°33' E 010°18'0 0.0
2018-Jun-11 09:28N 43°33' E 010°18'0 0.0
2018-Jun-11 08:58N 43°33' E 010°18'0 0.0
2018-Jun-11 08:25N 43°33' E 010°18'0 0.0
2018-Jun-11 07:58N 43°33' E 010°18'0 0.0
2018-Jun-11 07:28N 43°33' E 010°18'0 0.0
2018-Jun-11 06:58N 43°33' E 010°18'0 0.0
2018-Jun-11 06:28N 43°33' E 010°18'0 0.0
2018-Jun-11 05:58N 43°33' E 010°18'0 0.0
2018-Jun-11 05:28N 43°33' E 010°18'0 0.0
2018-Jun-11 04:58N 43°33' E 010°18'0 0.0
2018-Jun-11 04:25N 43°33' E 010°18'0 0.0
2018-Jun-11 03:58N 43°33' E 010°18'0 0.0
2018-Jun-11 03:28N 43°33' E 010°18'0 0.0
2018-Jun-11 02:55N 43°33' E 010°18'0 0.0
2018-Jun-11 02:28N 43°33' E 010°18'0 0.0
2018-Jun-11 01:58N 43°33' E 010°18'0 0.0
2018-Jun-11 01:28N 43°33' E 010°18'0 0.0
2018-Jun-11 00:58N 43°33' E 010°18'0 0.0
2018-Jun-11 00:28N 43°33' E 010°18'0 0.0
2018-Jun-10 23:58N 43°33' E 010°18'0 0.0
2018-Jun-10 23:28N 43°33' E 010°18'0 0.0
2018-Jun-10 22:58N 43°33' E 010°18'0 0.0
2018-Jun-10 22:28N 43°33' E 010°18'0 0.0
2018-Jun-10 21:58N 43°33' E 010°18'0 0.0
2018-Jun-10 21:28N 43°33' E 010°18'0 0.0
2018-Jun-10 20:58N 43°33' E 010°18'0 0.0
2018-Jun-10 20:28N 43°33' E 010°18'0 0.0
2018-Jun-10 19:58N 43°33' E 010°18'0 0.0
2018-Jun-10 19:25N 43°33' E 010°18'0 0.0
2018-Jun-10 18:58N 43°33' E 010°18'0 0.0
2018-Jun-10 18:28N 43°33' E 010°18'0 0.0
2018-Jun-10 17:58N 43°33' E 010°18'0 0.0
2018-Jun-10 17:28N 43°33' E 010°18'0 0.0
2018-Jun-10 16:58N 43°33' E 010°18'0 0.0
2018-Jun-10 16:28N 43°33' E 010°18'0 0.0
2018-Jun-10 15:58N 43°33' E 010°18'0 0.0
2018-Jun-10 15:28N 43°33' E 010°18'0 0.0
2018-Jun-10 14:58N 43°33' E 010°18'0 0.0
2018-Jun-10 14:28N 43°33' E 010°18'0 0.0
2018-Jun-10 13:28N 43°33' E 010°18'0 0.0
2018-Jun-10 12:58N 43°33' E 010°18'0 0.0
2018-Jun-10 12:28N 43°33' E 010°18'0 0.0
2018-Jun-10 11:58N 43°33' E 010°18'0 0.0
2018-Jun-10 11:28N 43°33' E 010°18'0 0.0
2018-Jun-10 10:58N 43°33' E 010°18'0 0.0
2018-Jun-10 10:28N 43°33' E 010°18'0 0.0
2018-Jun-10 09:58N 43°33' E 010°18'0 0.0
2018-Jun-10 09:28N 43°33' E 010°18'0 0.0
2018-Jun-10 08:58N 43°33' E 010°18'0 0.0
2018-Jun-10 08:28N 43°33' E 010°18'0 0.0
2018-Jun-10 07:58N 43°33' E 010°18'0 0.0
2018-Jun-10 07:28N 43°33' E 010°18'0 0.0
2018-Jun-10 06:58N 43°33' E 010°18'0 0.0
2018-Jun-10 06:28N 43°33' E 010°18'0 0.0
2018-Jun-10 05:58N 43°33' E 010°18'0 0.0
2018-Jun-10 05:28N 43°33' E 010°18'0 0.0
2018-Jun-10 04:58N 43°33' E 010°18'0 0.0
2018-Jun-10 04:25N 43°33' E 010°18'0 0.0
2018-Jun-10 03:58N 43°33' E 010°18'0 0.0
2018-Jun-10 03:28N 43°33' E 010°18'0 0.0
2018-Jun-10 02:58N 43°33' E 010°18'0 0.0
2018-Jun-10 02:28N 43°33' E 010°18'0 0.0
2018-Jun-10 01:58N 43°33' E 010°18'0 0.0
2018-Jun-10 01:25N 43°33' E 010°18'0 0.0
2018-Jun-10 00:58N 43°33' E 010°18'0 0.0
2018-Jun-10 00:28N 43°33' E 010°18'0 0.0
2018-Jun-09 23:58N 43°33' E 010°18'0 0.0
2018-Jun-09 23:28N 43°33' E 010°18'0 0.0
2018-Jun-09 22:58N 43°33' E 010°18'0 0.0
2018-Jun-09 22:28N 43°33' E 010°18'0 0.0
2018-Jun-09 21:58N 43°33' E 010°18'0 0.0
2018-Jun-09 21:28N 43°33' E 010°18'0 0.0
2018-Jun-09 20:58N 43°33' E 010°18'0 0.0
2018-Jun-09 20:28N 43°33' E 010°18'0 0.0
2018-Jun-09 19:58N 43°33' E 010°18'0 0.0
2018-Jun-09 19:28N 43°33' E 010°18'0 0.0
2018-Jun-09 18:58N 43°33' E 010°18'0 0.0
2018-Jun-09 18:28N 43°33' E 010°18'0 0.0
2018-Jun-09 17:58N 43°33' E 010°18'0 0.0
2018-Jun-09 17:28N 43°33' E 010°18'0 0.0
2018-Jun-09 16:58N 43°33' E 010°18'0 0.0
2018-Jun-09 16:28N 43°33' E 010°18'0 0.0
2018-Jun-09 15:58N 43°33' E 010°18'0 0.0
2018-Jun-09 15:01N 43°33' E 010°18'1 2.4
2018-Jun-09 14:31N 43°32' E 010°17'1 2.8
2018-Jun-09 14:00N 43°31' E 010°17'0 0.1
2018-Jun-09 13:31N 43°31' E 010°17'0 0.1
2018-Jun-09 12:58N 43°31' E 010°17'0 0.0
2018-Jun-09 12:28N 43°31' E 010°17'0 0.0
2018-Jun-09 11:58N 43°31' E 010°17'0 0.0
2018-Jun-09 11:28N 43°31' E 010°17'0 0.0
2018-Jun-09 10:58N 43°31' E 010°17'0 0.0
2018-Jun-09 10:28N 43°31' E 010°17'0 0.0
2018-Jun-09 09:55N 43°31' E 010°17'0 0.0
2018-Jun-09 09:28N 43°31' E 010°17'0 0.0
2018-Jun-09 08:58N 43°31' E 010°17'0 0.0
2018-Jun-09 08:28N 43°31' E 010°17'0 0.0
2018-Jun-09 07:58N 43°31' E 010°17'0 0.0
2018-Jun-09 07:28N 43°31' E 010°17'0 0.0
2018-Jun-09 06:58N 43°31' E 010°17'0 0.0
2018-Jun-09 06:28N 43°31' E 010°17'0 0.0
2018-Jun-09 05:58N 43°31' E 010°17'0 0.0
2018-Jun-09 05:28N 43°31' E 010°17'0 0.0
2018-Jun-09 04:58N 43°31' E 010°17'0 0.0
2018-Jun-09 04:25N 43°31' E 010°17'0 0.0
2018-Jun-09 03:58N 43°31' E 010°17'0 0.0
2018-Jun-09 03:28N 43°31' E 010°17'0 0.0
2018-Jun-09 02:58N 43°31' E 010°17'  

Dump ship's entire track history